Time;durP1;ratioP1;P1;durP2;ratioP2;P2;SDS_P1;SDS_P2;PMS_P1;PMS_P2;Temp;Humidity;BMP_temperature;BMP_pressure;BME280_temperature;BME280_humidity;BME280_pressure;Samples;Min_cycle;Max_cycle;Signal;HPM_P1;HPM_P2
2022/08/03 00:00:59;;;;;;;1.50;0.90;;;22.60;90.60;;;;;;6152344;23;20452;-80
2022/08/03 00:03:26;;;;;;;1.43;0.90;;;22.50;90.30;;;;;;6162586;23;20447;-82
2022/08/03 00:05:54;;;;;;;1.50;0.90;;;22.50;90.10;;;;;;6160744;23;20428;-82
2022/08/03 00:08:21;;;;;;;1.50;0.93;;;22.50;90.60;;;;;;6157971;23;20989;-80
2022/08/03 00:10:48;;;;;;;1.50;1.00;;;22.50;91.30;;;;;;6137814;23;20425;-81
2022/08/03 00:13:18;;;;;;;1.50;0.90;;;22.50;90.40;;;;;;6152789;23;20423;-81
2022/08/03 00:15:45;;;;;;;1.43;0.90;;;22.50;91.20;;;;;;6152917;23;20810;-82
2022/08/03 00:18:12;;;;;;;1.47;0.90;;;22.50;91.30;;;;;;6153534;23;20425;-81
2022/08/03 00:20:39;;;;;;;1.43;0.90;;;22.50;91.40;;;;;;6154378;23;20445;-81
2022/08/03 00:23:06;;;;;;;1.43;0.90;;;22.50;90.40;;;;;;6153343;23;20452;-81
2022/08/03 00:25:34;;;;;;;1.47;0.90;;;22.40;91.20;;;;;;6153914;23;20417;-80
2022/08/03 00:28:04;;;;;;;1.50;0.90;;;22.40;91.20;;;;;;6158564;23;20428;-80
2022/08/03 00:30:33;;;;;;;1.50;0.90;;;22.40;92.00;;;;;;6164343;23;21113;-81
2022/08/03 00:33:01;;;;;;;1.50;0.90;;;22.30;92.10;;;;;;6136574;23;20456;-81
2022/08/03 00:35:28;;;;;;;1.43;0.90;;;22.30;91.30;;;;;;6152317;23;20424;-81
2022/08/03 00:37:55;;;;;;;1.47;0.90;;;22.30;91.30;;;;;;6136189;23;20475;-81
2022/08/03 00:40:22;;;;;;;1.43;0.90;;;22.30;91.60;;;;;;6152303;23;20836;-80
2022/08/03 00:42:52;;;;;;;1.47;0.90;;;22.20;92.00;;;;;;6150087;23;20424;-81
2022/08/03 00:45:21;;;;;;;1.47;0.90;;;22.20;92.50;;;;;;6152231;23;20431;-81
2022/08/03 00:47:49;;;;;;;1.47;0.90;;;22.20;92.00;;;;;;6136332;23;20695;-82
2022/08/03 00:50:17;;;;;;;1.47;0.90;;;22.20;92.30;;;;;;6153882;23;20456;-81
2022/08/03 00:52:45;;;;;;;1.47;0.90;;;22.10;91.90;;;;;;6136580;23;20455;-81
2022/08/03 00:55:12;;;;;;;1.43;0.90;;;22.10;92.20;;;;;;6151487;23;20512;-80
2022/08/03 00:57:40;;;;;;;1.47;0.90;;;22.10;93.10;;;;;;6138898;23;20459;-80
2022/08/03 01:00:09;;;;;;;1.50;0.90;;;22.00;92.80;;;;;;6152845;23;20815;-81
2022/08/03 01:02:36;;;;;;;1.43;0.90;;;22.00;92.80;;;;;;6138914;23;20445;-81
2022/08/03 01:05:06;;;;;;;1.47;0.90;;;22.00;92.60;;;;;;6152847;23;21205;-81
2022/08/03 01:07:42;;;;;;;1.50;0.90;;;22.00;93.40;;;;;;6136525;23;20487;-81
2022/08/03 01:10:17;;;;;;;1.43;0.90;;;22.00;93.10;;;;;;6163023;23;20483;-81
2022/08/03 01:12:52;;;;;;;1.43;0.87;;;22.00;92.60;;;;;;6151609;23;20986;-80
2022/08/03 01:15:27;;;;;;;1.50;0.90;;;22.00;93.00;;;;;;6152364;23;20421;-81
2022/08/03 01:18:00;;;;;;;1.47;0.90;;;22.00;93.00;;;;;;6136139;23;20543;-80
2022/08/03 01:20:34;;;;;;;1.47;0.90;;;21.90;93.10;;;;;;6153490;23;20819;-82
2022/08/03 01:23:23;;;;;;;1.47;0.90;;;21.90;93.40;;;;;;6138687;23;20452;-80
2022/08/03 01:26:09;;;;;;;1.47;0.90;;;21.90;92.90;;;;;;6139515;23;20420;-81
2022/08/03 01:28:57;;;;;;;1.50;0.90;;;21.90;93.30;;;;;;6153476;23;20628;-81
2022/08/03 01:31:32;;;;;;;1.40;0.90;;;21.80;93.20;;;;;;6142699;23;20551;-84
2022/08/03 01:34:03;;;;;;;1.50;0.90;;;21.80;93.80;;;;;;6156559;23;20451;-81
2022/08/03 01:36:35;;;;;;;1.50;0.90;;;21.80;93.20;;;;;;6138393;23;20804;-80
2022/08/03 01:39:08;;;;;;;1.40;0.90;;;21.70;93.50;;;;;;6153337;23;20813;-81
2022/08/03 01:41:40;;;;;;;1.40;0.90;;;21.70;94.10;;;;;;6137748;23;20452;-81
2022/08/03 01:44:10;;;;;;;1.47;0.90;;;21.70;95.00;;;;;;6153153;23;20409;-81
2022/08/03 01:46:40;;;;;;;1.43;0.90;;;21.60;95.80;;;;;;6153579;23;20959;-81
2022/08/03 01:49:10;;;;;;;1.40;0.90;;;21.60;96.70;;;;;;6155079;23;20513;-81
2022/08/03 01:51:39;;;;;;;1.47;0.90;;;21.60;96.30;;;;;;6139815;23;20476;-81
2022/08/03 01:54:09;;;;;;;1.50;0.90;;;21.60;97.30;;;;;;6153991;23;20537;-81
2022/08/03 01:56:37;;;;;;;1.50;0.90;;;21.50;96.40;;;;;;6153786;23;20472;-82
2022/08/03 01:59:07;;;;;;;1.50;0.90;;;21.50;97.20;;;;;;6154607;23;20434;-80
2022/08/03 02:01:36;;;;;;;1.47;0.90;;;21.50;97.30;;;;;;6138103;23;20475;-81
2022/08/03 02:04:06;;;;;;;1.40;0.90;;;21.50;97.30;;;;;;6154762;23;20452;-81
2022/08/03 02:06:35;;;;;;;1.43;0.90;;;21.50;97.00;;;;;;6154368;23;20448;-81
2022/08/03 02:09:03;;;;;;;1.50;0.97;;;21.50;97.50;;;;;;6155680;23;20840;-82
2022/08/03 02:11:32;;;;;;;1.60;1.30;;;21.50;97.20;;;;;;6138720;23;20500;-81
2022/08/03 02:14:02;;;;;;;1.43;0.90;;;21.40;98.10;;;;;;6153575;23;20427;-81
2022/08/03 02:16:31;;;;;;;1.50;0.90;;;21.40;97.80;;;;;;6155086;23;20537;-81
2022/08/03 02:18:59;;;;;;;1.47;0.90;;;21.40;98.20;;;;;;6165927;23;20416;-80
2022/08/03 02:21:31;;;;;;;1.50;0.90;;;21.40;97.50;;;;;;6136743;23;20524;-80
2022/08/03 02:23:58;;;;;;;1.47;0.90;;;21.40;97.70;;;;;;6152841;23;20406;-80
2022/08/03 02:26:29;;;;;;;1.47;0.90;;;21.40;97.30;;;;;;6137948;23;20457;-82
2022/08/03 02:29:00;;;;;;;1.47;0.90;;;21.30;96.90;;;;;;6152852;23;20412;-81
2022/08/03 02:31:31;;;;;;;1.50;1.00;;;21.30;97.10;;;;;;6137428;23;20459;-80
2022/08/03 02:34:03;;;;;;;1.50;1.00;;;21.30;97.20;;;;;;6152325;23;20433;-81
2022/08/03 02:36:38;;;;;;;1.43;0.90;;;21.30;97.20;;;;;;6156325;23;20476;-81
2022/08/03 02:39:09;;;;;;;1.43;0.90;;;21.30;97.20;;;;;;6167180;23;20427;-80
2022/08/03 02:41:38;;;;;;;1.47;0.90;;;21.20;96.60;;;;;;6153186;23;20476;-80
2022/08/03 02:44:12;;;;;;;1.50;1.00;;;21.20;96.00;;;;;;6152909;23;20556;-79
2022/08/03 02:46:43;;;;;;;1.43;0.90;;;21.20;96.80;;;;;;6136567;23;20524;-80
2022/08/03 02:49:12;;;;;;;1.47;0.90;;;21.20;97.30;;;;;;6152441;23;20916;-81
2022/08/03 02:51:42;;;;;;;1.43;0.90;;;21.20;96.50;;;;;;6152648;23;20421;-80
2022/08/03 02:54:10;;;;;;;1.47;0.90;;;21.20;96.70;;;;;;6153163;23;20516;-81
2022/08/03 02:56:39;;;;;;;1.50;1.13;;;21.20;96.80;;;;;;6137963;23;20520;-81
2022/08/03 02:59:07;;;;;;;1.47;0.90;;;21.20;97.30;;;;;;6155646;23;20421;-81
2022/08/03 03:01:35;;;;;;;1.47;0.90;;;21.10;97.70;;;;;;6146403;23;20453;-81
2022/08/03 03:04:02;;;;;;;1.50;1.00;;;21.10;97.00;;;;;;6151501;23;20451;-80
2022/08/03 03:06:30;;;;;;;1.50;0.90;;;21.10;96.90;;;;;;6136946;23;20479;-80
2022/08/03 03:09:01;;;;;;;1.47;0.90;;;21.10;97.60;;;;;;6153011;23;20491;-80
2022/08/03 03:11:29;;;;;;;1.47;0.97;;;21.10;98.10;;;;;;6135802;23;20456;-81
2022/08/03 03:13:58;;;;;;;1.50;1.00;;;21.00;98.20;;;;;;6152843;23;20955;-81
2022/08/03 03:16:26;;;;;;;1.50;0.90;;;21.00;98.20;;;;;;6146466;23;21003;-81
2022/08/03 03:18:54;;;;;;;1.47;0.90;;;21.00;98.20;;;;;;6163550;23;20507;-80
2022/08/03 03:21:22;;;;;;;1.43;0.90;;;20.90;98.20;;;;;;6152789;23;20440;-80
2022/08/03 03:23:50;;;;;;;1.40;0.90;;;20.90;98.20;;;;;;6164840;23;20605;-81
2022/08/03 03:26:19;;;;;;;1.50;0.90;;;20.90;98.20;;;;;;6145793;23;20475;-80
2022/08/03 03:28:46;;;;;;;1.50;0.90;;;20.90;98.20;;;;;;6152730;23;20459;-80
2022/08/03 03:31:13;;;;;;;1.43;0.90;;;20.90;98.20;;;;;;6151069;23;20463;-81
2022/08/03 03:33:40;;;;;;;1.47;0.90;;;20.90;98.20;;;;;;6149688;23;20764;-79
2022/08/03 03:36:08;;;;;;;1.47;0.90;;;20.90;98.20;;;;;;6138884;23;20480;-81
2022/08/03 03:38:35;;;;;;;1.50;0.90;;;20.90;98.20;;;;;;6153647;23;20423;-80
2022/08/03 03:41:02;;;;;;;1.43;0.90;;;20.80;98.20;;;;;;6137375;23;20445;-80
2022/08/03 03:43:31;;;;;;;1.40;0.90;;;20.80;98.20;;;;;;6163001;23;20841;-80
2022/08/03 03:45:59;;;;;;;1.40;0.90;;;20.90;98.20;;;;;;6145670;23;20445;-81
2022/08/03 03:48:26;;;;;;;1.43;0.90;;;20.90;98.20;;;;;;6153212;23;20425;-80
2022/08/03 03:50:58;;;;;;;1.40;0.90;;;20.90;98.20;;;;;;6151716;23;20501;-83
2022/08/03 03:53:26;;;;;;;1.47;0.90;;;20.80;98.20;;;;;;6152302;23;20405;-81
2022/08/03 03:55:53;;;;;;;1.47;0.90;;;20.80;98.20;;;;;;6162808;23;20471;-81
2022/08/03 03:58:21;;;;;;;1.50;1.00;;;20.80;98.20;;;;;;6155108;23;20435;-81
2022/08/03 04:00:52;;;;;;;1.43;0.90;;;20.80;98.20;;;;;;6138145;23;20455;-82
2022/08/03 04:03:19;;;;;;;1.47;0.90;;;20.80;98.20;;;;;;6152442;23;20420;-81
2022/08/03 04:11:21;;;;;;;1.43;0.90;;;20.70;98.20;;;;;;6148152;23;20467;-82
2022/08/03 04:13:57;;;;;;;1.43;0.90;;;20.70;98.20;;;;;;6170916;23;20428;-81
2022/08/03 04:16:32;;;;;;;1.40;0.90;;;20.70;98.20;;;;;;6154917;23;20452;-82
2022/08/03 04:19:06;;;;;;;1.50;0.90;;;20.60;98.20;;;;;;6161309;23;20424;-82
2022/08/03 04:21:35;;;;;;;1.47;0.90;;;20.60;98.20;;;;;;6151137;23;20448;-82
2022/08/03 04:24:17;;;;;;;1.50;0.90;;;20.60;98.20;;;;;;6171302;23;20458;-82
2022/08/03 04:26:48;;;;;;;1.43;0.90;;;20.60;98.20;;;;;;6163572;23;20461;-81
2022/08/03 04:29:18;;;;;;;1.47;0.90;;;20.60;98.20;;;;;;6170345;23;20919;-82
2022/08/03 04:31:52;;;;;;;1.50;0.90;;;20.60;98.20;;;;;;6171380;23;20479;-82
2022/08/03 04:34:19;;;;;;;1.50;0.93;;;20.70;98.20;;;;;;6165277;23;20429;-82
2022/08/03 04:36:50;;;;;;;1.43;0.90;;;20.70;98.20;;;;;;6142603;23;20513;-82
2022/08/03 04:39:29;;;;;;;1.43;0.90;;;20.70;98.20;;;;;;6173621;23;20440;-82
2022/08/03 04:42:02;;;;;;;1.40;0.90;;;20.70;98.20;;;;;;6145278;23;20456;-84
2022/08/03 04:44:32;;;;;;;1.43;0.90;;;20.70;98.20;;;;;;6171707;23;20422;-83
2022/08/03 04:47:12;;;;;;;1.43;0.90;;;20.70;98.20;;;;;;6145999;23;20453;-84
2022/08/03 04:49:40;;;;;;;1.50;1.00;;;20.70;98.20;;;;;;6165229;23;20432;-81
2022/08/03 04:52:22;;;;;;;1.47;0.90;;;20.80;98.20;;;;;;6154158;23;20449;-83
2022/08/03 04:54:50;;;;;;;1.40;0.90;;;20.80;98.20;;;;;;6175176;23;20424;-82
2022/08/03 04:57:18;;;;;;;1.50;1.20;;;20.80;98.20;;;;;;6153058;23;20472;-82
2022/08/03 04:59:51;;;;;;;1.50;0.90;;;20.90;98.20;;;;;;6166453;23;20421;-83
2022/08/03 05:02:38;;;;;;;1.43;0.90;;;20.90;98.20;;;;;;6155119;23;20511;-83
2022/08/03 05:05:10;;;;;;;1.43;0.90;;;20.90;98.20;;;;;;6167447;23;20420;-82
2022/08/03 05:07:42;;;;;;;1.47;0.90;;;21.00;98.20;;;;;;6177518;23;20475;-84
2022/08/03 05:10:14;;;;;;;1.50;0.90;;;21.00;98.20;;;;;;6176856;23;20491;-84
2022/08/03 05:12:43;;;;;;;1.43;0.90;;;21.10;98.20;;;;;;6147918;23;20454;-84
2022/08/03 05:15:14;;;;;;;1.43;0.90;;;21.10;98.20;;;;;;6177100;23;20448;-83
2022/08/03 05:17:52;;;;;;;1.50;0.90;;;21.20;98.20;;;;;;6167671;23;20445;-83
2022/08/03 05:20:24;;;;;;;1.43;0.90;;;21.40;98.20;;;;;;6176575;23;20420;-82
2022/08/03 05:25:41;;;;;;;1.43;0.90;;;21.60;97.60;;;;;;6167214;23;20472;-83
2022/08/03 05:28:09;;;;;;;1.47;0.90;;;21.80;97.40;;;;;;6155783;23;20449;-82
2022/08/03 05:30:44;;;;;;;1.50;0.90;;;22.00;97.10;;;;;;6179919;23;20421;-82
2022/08/03 05:33:14;;;;;;;1.47;0.90;;;22.20;95.90;;;;;;6129843;23;20425;-81
2022/08/03 05:35:47;;;;;;;1.50;0.90;;;22.30;96.00;;;;;;6179285;23;20423;-81
2022/08/03 05:38:16;;;;;;;1.60;1.10;;;22.50;95.60;;;;;;6176811;23;20398;-82
2022/08/03 05:40:47;;;;;;;1.50;0.90;;;22.70;94.70;;;;;;6177080;23;20441;-82
2022/08/03 05:43:17;;;;;;;1.47;0.90;;;22.80;94.20;;;;;;6123539;23;20453;-83
2022/08/03 05:46:12;;;;;;;1.50;0.90;;;23.00;94.20;;;;;;6178373;23;20425;-82
2022/08/03 05:48:45;;;;;;;1.47;0.90;;;23.20;93.80;;;;;;6108571;23;20429;-82
2022/08/03 05:51:16;;;;;;;1.50;0.90;;;23.40;92.70;;;;;;6161361;23;20942;-82
2022/08/03 05:53:51;;;;;;;1.50;0.90;;;23.60;92.30;;;;;;6177869;23;20457;-82
2022/08/03 05:56:24;;;;;;;1.50;0.90;;;23.80;91.70;;;;;;6162781;23;20448;-82
2022/08/03 05:58:52;;;;;;;1.50;0.90;;;24.10;91.30;;;;;;6181073;23;20424;-82
2022/08/03 06:01:23;;;;;;;1.43;0.90;;;24.30;90.70;;;;;;6161581;23;20536;-82
2022/08/03 06:03:53;;;;;;;1.50;0.90;;;24.50;89.20;;;;;;6178231;23;20413;-83
2022/08/03 06:06:22;;;;;;;1.50;0.90;;;24.80;88.90;;;;;;6152088;23;20461;-83
2022/08/03 06:08:59;;;;;;;1.50;0.90;;;25.00;88.50;;;;;;6176880;23;20417;-82
2022/08/03 06:11:30;;;;;;;1.47;0.90;;;25.20;88.20;;;;;;6152123;23;20452;-83
2022/08/03 06:13:59;;;;;;;1.50;0.90;;;25.50;87.80;;;;;;6175848;23;20421;-83
2022/08/03 06:16:27;;;;;;;1.50;0.90;;;25.70;86.20;;;;;;6175078;23;20975;-82
2022/08/03 06:18:57;;;;;;;1.50;0.90;;;25.80;86.60;;;;;;6173436;23;20432;-83
2022/08/03 06:21:26;;;;;;;1.50;0.90;;;26.10;85.60;;;;;;6155292;23;20610;-83
2022/08/03 06:23:55;;;;;;;1.43;0.83;;;26.30;84.70;;;;;;6174770;23;20421;-83
2022/08/03 06:26:24;;;;;;;1.50;0.90;;;26.40;84.00;;;;;;6158000;23;20459;-83
2022/08/03 06:29:12;;;;;;;1.47;0.87;;;26.60;84.00;;;;;;6175551;23;20473;-83
2022/08/03 06:31:46;;;;;;;1.47;0.90;;;26.70;84.00;;;;;;6148185;23;20429;-83
2022/08/03 06:34:48;;;;;;;1.50;0.90;;;26.80;83.20;;;;;;6163315;23;20421;-83
2022/08/03 06:37:17;;;;;;;1.43;0.90;;;26.90;83.80;;;;;;6152387;23;20456;-83
2022/08/03 06:40:00;;;;;;;1.50;0.90;;;26.90;83.60;;;;;;6173375;23;20416;-81
2022/08/03 06:42:28;;;;;;;1.47;0.90;;;26.90;84.20;;;;;;6150437;23;20538;-82
2022/08/03 06:44:56;;;;;;;1.60;1.30;;;27.20;83.40;;;;;;6171045;23;20785;-82
2022/08/03 06:47:27;;;;;;;1.50;0.90;;;27.50;82.70;;;;;;6163132;23;20591;-82
2022/08/03 06:49:57;;;;;;;1.50;0.90;;;27.80;82.00;;;;;;6176797;23;20408;-82
2022/08/03 06:52:30;;;;;;;1.50;0.90;;;28.10;81.20;;;;;;6177610;23;20429;-81
2022/08/03 06:54:58;;;;;;;1.47;0.80;;;28.30;80.60;;;;;;6178033;23;20416;-82
2022/08/03 06:57:26;;;;;;;1.50;0.90;;;28.60;79.60;;;;;;6153858;23;20453;-83
2022/08/03 07:02:38;;;;;;;1.50;0.83;;;29.00;77.60;;;;;;6160910;23;20448;-82
2022/08/03 07:05:20;;;;;;;1.43;0.90;;;29.20;77.00;;;;;;6175888;23;20504;-81
2022/08/03 07:07:48;;;;;;;1.50;0.90;;;29.40;76.60;;;;;;6151688;23;20488;-82
2022/08/03 07:10:16;;;;;;;1.47;0.80;;;29.50;75.10;;;;;;6176602;23;21000;-81
2022/08/03 07:12:43;;;;;;;1.50;1.00;;;29.70;74.60;;;;;;6175890;23;20424;-83
2022/08/03 07:15:12;;;;;;;1.43;0.80;;;29.80;75.00;;;;;;6165640;23;20420;-82
2022/08/03 07:17:47;;;;;;;1.50;0.80;;;29.90;74.30;;;;;;6151871;23;20452;-81
2022/08/03 07:23:44;;;;;;;1.43;0.80;;;30.00;73.80;;;;;;6008209;23;20848;-82
2022/08/03 07:26:25;;;;;;;1.40;0.80;;;30.30;72.70;;;;;;6140405;23;20475;-82
2022/08/03 07:35:36;;;;;;;1.47;0.80;;;30.70;71.30;;;;;;6043319;23;20422;-81
2022/08/03 07:38:03;;;;;;;1.43;0.80;;;30.70;71.40;;;;;;6044425;23;20995;-80
2022/08/03 07:40:35;;;;;;;1.47;0.80;;;30.80;71.20;;;;;;6157751;23;20409;-81
2022/08/03 07:45:47;;;;;;;1.50;0.80;;;31.10;71.70;;;;;;6165401;23;20830;-80
2022/08/03 07:48:16;;;;;;;1.47;0.80;;;31.20;71.30;;;;;;6122916;23;20457;-83
2022/08/03 07:50:53;;;;;;;1.43;0.83;;;31.30;70.90;;;;;;6172730;23;20451;-83
2022/08/03 07:53:25;;;;;;;1.47;0.80;;;31.50;70.50;;;;;;6123739;23;20427;-81
2022/08/03 07:55:57;;;;;;;1.47;0.80;;;31.60;70.30;;;;;;6148650;23;20464;-82
2022/08/03 07:58:44;;;;;;;1.97;1.40;;;31.70;71.20;;;;;;6172056;23;20436;-81
2022/08/03 08:01:12;;;;;;;1.50;0.90;;;31.90;70.70;;;;;;6174485;23;20451;-81
2022/08/03 08:03:49;;;;;;;1.50;0.80;;;32.00;70.50;;;;;;6164771;23;20444;-82
2022/08/03 08:06:19;;;;;;;1.43;0.80;;;32.10;68.50;;;;;;6157244;23;21053;-81
2022/08/03 08:08:47;;;;;;;1.47;0.80;;;32.00;69.80;;;;;;6173934;23;20424;-81
2022/08/03 08:11:16;;;;;;;1.47;0.80;;;32.20;69.80;;;;;;6175099;23;20438;-81
2022/08/03 08:13:44;;;;;;;1.43;0.80;;;32.20;69.00;;;;;;6164774;23;20480;-82
2022/08/03 08:16:14;;;;;;;1.40;0.80;;;32.40;68.70;;;;;;6150585;23;20448;-81
2022/08/03 08:18:42;;;;;;;1.47;0.80;;;32.40;68.20;;;;;;6165136;23;20405;-80
2022/08/03 08:24:47;;;;;;;1.43;0.80;;;32.60;68.60;;;;;;6161033;23;20467;-80
2022/08/03 08:27:16;;;;;;;1.50;0.80;;;32.70;68.10;;;;;;6149125;23;21081;-81
2022/08/03 08:29:43;;;;;;;1.43;0.80;;;32.80;68.00;;;;;;6173956;23;20450;-81
2022/08/03 08:32:13;;;;;;;1.50;0.80;;;32.90;67.40;;;;;;6172133;23;20177;-81
2022/08/03 08:34:41;;;;;;;1.43;0.80;;;33.00;67.70;;;;;;6173186;23;20421;-81
2022/08/03 08:37:08;;;;;;;1.50;0.80;;;33.10;66.90;;;;;;6147740;23;20500;-81
2022/08/03 08:39:39;;;;;;;1.43;0.80;;;33.30;67.20;;;;;;6163192;23;20180;-81
2022/08/03 08:42:23;;;;;;;1.47;0.80;;;33.30;66.00;;;;;;6145642;23;20428;-82
2022/08/03 08:49:21;;;;;;;1.40;0.80;;;33.30;65.90;;;;;;6082774;23;20431;-81
2022/08/03 08:55:54;;;;;;;1.40;0.80;;;33.60;66.00;;;;;;6147785;23;20173;-80
2022/08/03 08:58:24;;;;;;;1.40;0.80;;;33.80;65.10;;;;;;6152126;23;20328;-82
2022/08/03 09:00:52;;;;;;;1.43;0.80;;;33.90;65.10;;;;;;6155408;23;20586;-80
2022/08/03 09:03:26;;;;;;;1.47;0.80;;;34.00;65.30;;;;;;6157454;23;20230;-81
2022/08/03 09:05:54;;;;;;;1.60;1.23;;;33.90;65.10;;;;;;6150432;23;20235;-79
2022/08/03 09:08:25;;;;;;;1.43;0.80;;;34.00;65.30;;;;;;6154136;23;20184;-81
2022/08/03 09:10:55;;;;;;;1.42;0.80;;;34.20;64.60;;;;;;6139154;23;20220;-80
2022/08/03 09:13:24;;;;;;;1.42;0.80;;;34.40;64.60;;;;;;6167181;23;20528;-83
2022/08/03 09:16:16;;;;;;;1.50;1.00;;;34.60;63.90;;;;;;6157500;23;20203;-80
2022/08/03 09:18:45;;;;;;;1.42;0.80;;;34.70;63.70;;;;;;6157764;23;20171;-82
2022/08/03 09:21:24;;;;;;;1.47;0.80;;;34.70;62.60;;;;;;6169048;23;20323;-81
2022/08/03 09:23:56;;;;;;;1.43;0.80;;;34.80;62.60;;;;;;6168598;23;20280;-82
2022/08/03 09:40:12;;;;;;;2.50;1.48;;;35.20;61.60;;;;;;5722612;24;20220;-81
2022/08/03 09:43:07;;;;;;;1.40;0.80;;;35.40;61.70;;;;;;5712477;24;20965;-81
2022/08/03 09:45:44;;;;;;;1.40;0.80;;;35.60;61.40;;;;;;5913723;24;20408;-80
2022/08/03 10:01:11;;;;;;;1.40;0.80;;;36.40;59.80;;;;;;5995196;23;20204;-80
2022/08/03 10:03:40;;;;;;;1.40;0.80;;;36.40;59.60;;;;;;6026267;23;20217;-81
2022/08/03 10:06:18;;;;;;;1.40;0.80;;;36.50;59.20;;;;;;6095996;23;20215;-80
2022/08/03 10:09:07;;;;;;;1.40;0.80;;;36.60;58.90;;;;;;6162171;23;20177;-80
2022/08/03 10:11:36;;;;;;;1.45;0.80;;;36.70;58.90;;;;;;6144968;23;20204;-82
2022/08/03 10:14:17;;;;;;;1.40;0.80;;;36.70;59.40;;;;;;6163773;23;20200;-80
2022/08/03 10:19:57;;;;;;;1.42;0.80;;;36.80;59.00;;;;;;6101881;23;20236;-81
2022/08/03 10:22:28;;;;;;;1.40;0.80;;;36.80;59.00;;;;;;6145406;23;20204;-80
2022/08/03 10:25:06;;;;;;;1.40;0.80;;;36.80;58.80;;;;;;6174936;23;20173;-81
2022/08/03 10:27:38;;;;;;;1.42;0.80;;;36.70;58.40;;;;;;6149205;23;20264;-81
2022/08/03 10:30:07;;;;;;;1.40;0.80;;;36.80;58.80;;;;;;6161344;23;20180;-80
2022/08/03 10:32:44;;;;;;;1.40;0.80;;;36.80;59.00;;;;;;6147218;23;20223;-82
2022/08/03 10:35:14;;;;;;;1.40;0.80;;;36.90;57.60;;;;;;6160704;23;20164;-81
2022/08/03 10:37:52;;;;;;;1.50;1.02;;;36.90;58.50;;;;;;6164851;23;20669;-81
2022/08/03 10:40:23;;;;;;;1.40;0.80;;;37.10;58.60;;;;;;6172169;23;20173;-79
2022/08/03 10:42:54;;;;;;;1.40;0.80;;;37.30;57.90;;;;;;6158847;23;20239;-79
2022/08/03 10:45:27;;;;;;;1.40;0.80;;;37.30;56.90;;;;;;6161091;23;20582;-81
2022/08/03 10:47:57;;;;;;;1.40;0.80;;;37.50;57.10;;;;;;6145903;23;20213;-81
2022/08/03 10:50:27;;;;;;;1.38;0.80;;;37.60;56.20;;;;;;6170309;23;20187;-80
2022/08/03 10:52:56;;;;;;;1.40;0.80;;;37.60;56.60;;;;;;6143675;23;20284;-80
2022/08/03 10:58:50;;;;;;;1.40;0.80;;;37.90;56.90;;;;;;6119896;23;20267;-79
2022/08/03 11:01:19;;;;;;;1.40;0.80;;;38.00;56.80;;;;;;6138432;23;20492;-79
2022/08/03 11:04:19;;;;;;;1.40;0.80;;;38.00;55.00;;;;;;6160253;23;20200;-79
2022/08/03 11:06:48;;;;;;;1.40;0.80;;;37.90;55.80;;;;;;6151585;23;20216;-80
2022/08/03 11:09:17;;;;;;;1.40;0.90;;;38.00;56.40;;;;;;6160370;23;20181;-80
2022/08/03 11:11:47;;;;;;;1.40;0.80;;;38.00;55.10;;;;;;6141993;23;20208;-78
2022/08/03 11:14:23;;;;;;;1.40;0.80;;;38.00;55.50;;;;;;6170038;23;20196;-78
2022/08/03 11:17:07;;;;;;;1.40;0.80;;;38.00;54.60;;;;;;6145132;23;20212;-80
2022/08/03 11:19:46;;;;;;;1.40;0.80;;;37.90;53.80;;;;;;6169884;23;20169;-79
2022/08/03 11:22:15;;;;;;;1.40;0.80;;;37.90;53.90;;;;;;6142821;23;20204;-80
2022/08/03 11:25:01;;;;;;;1.40;0.80;;;37.90;55.10;;;;;;6170054;23;20724;-81
2022/08/03 11:27:33;;;;;;;1.38;0.88;;;38.10;54.50;;;;;;6143096;23;20260;-79
2022/08/03 11:30:08;;;;;;;1.40;0.80;;;38.30;53.80;;;;;;6159578;23;20208;-81
2022/08/03 11:33:08;;;;;;;1.40;0.80;;;38.10;54.00;;;;;;6146960;23;20209;-81
2022/08/03 11:35:58;;;;;;;1.40;0.80;;;38.20;54.60;;;;;;6159474;23;20183;-81
2022/08/03 11:38:30;;;;;;;1.40;1.00;;;38.20;54.20;;;;;;6121107;23;20283;-79
2022/08/03 11:40:57;;;;;;;1.40;0.80;;;38.20;54.20;;;;;;6147169;23;20553;-80
2022/08/03 11:43:46;;;;;;;1.50;1.15;;;38.40;52.30;;;;;;6168294;23;20223;-79
2022/08/03 11:46:20;;;;;;;1.40;0.80;;;38.50;52.40;;;;;;6132161;23;20468;-81
2022/08/03 11:48:49;;;;;;;1.40;0.80;;;38.60;52.70;;;;;;6164243;23;20225;-80
2022/08/03 11:51:22;;;;;;;1.40;0.80;;;38.60;52.70;;;;;;6154954;23;20408;-80
2022/08/03 11:53:55;;;;;;;1.40;0.80;;;38.70;53.50;;;;;;6170984;23;20165;-80
2022/08/03 11:56:23;;;;;;;1.40;0.80;;;38.80;52.20;;;;;;6145758;23;20287;-81
2022/08/03 11:59:01;;;;;;;1.40;0.80;;;38.90;54.00;;;;;;6159568;23;20212;-81
2022/08/03 12:01:30;;;;;;;1.40;0.80;;;39.10;53.80;;;;;;6147213;23;20208;-80
2022/08/03 12:04:04;;;;;;;1.40;0.80;;;39.10;52.50;;;;;;6167051;23;20601;-81
2022/08/03 12:06:53;;;;;;;1.38;0.80;;;39.10;52.60;;;;;;6149937;23;20247;-78
2022/08/03 12:09:25;;;;;;;1.38;0.80;;;39.00;53.10;;;;;;6161699;23;20204;-81
2022/08/03 12:11:54;;;;;;;1.40;0.80;;;39.00;53.00;;;;;;6142384;23;20212;-81
2022/08/03 12:14:21;;;;;;;1.40;0.80;;;39.00;53.60;;;;;;6167870;23;20173;-80
2022/08/03 12:16:50;;;;;;;1.40;0.80;;;38.90;52.40;;;;;;6150601;23;20216;-80
2022/08/03 12:19:18;;;;;;;1.40;0.80;;;38.70;53.40;;;;;;6158807;23;20643;-79
2022/08/03 12:25:03;;;;;;;1.40;0.80;;;39.00;52.20;;;;;;6174507;23;20219;-81
2022/08/03 12:27:30;;;;;;;1.40;0.90;;;38.90;53.00;;;;;;6147717;23;20213;-81
2022/08/03 12:30:00;;;;;;;1.40;0.80;;;39.00;53.00;;;;;;6170149;23;20223;-81
2022/08/03 12:32:28;;;;;;;1.40;0.80;;;39.00;53.20;;;;;;6147243;23;20212;-80
2022/08/03 12:34:59;;;;;;;1.38;0.80;;;39.10;52.60;;;;;;6161043;23;20244;-79
2022/08/03 12:37:28;;;;;;;1.40;0.80;;;39.20;52.60;;;;;;6144628;23;20223;-80
2022/08/03 12:40:55;;;;;;;;;;;;;;;;;;;;;
2022/08/03 12:43:36;;;;;;;1.38;0.80;;;38.90;52.20;;;;;;5977204;24;20217;-82
2022/08/03 12:46:17;;;;;;;1.40;0.80;;;38.90;52.90;;;;;;6035760;23;20207;-82
2022/08/03 12:49:02;;;;;;;1.35;0.80;;;39.00;53.00;;;;;;6160157;23;20191;-78
2022/08/03 12:51:31;;;;;;;1.35;0.80;;;39.20;52.10;;;;;;6147636;23;20208;-78
2022/08/03 12:54:02;;;;;;;1.40;0.80;;;39.30;51.40;;;;;;6171186;23;20200;-81
2022/08/03 12:56:36;;;;;;;1.40;0.80;;;39.50;51.20;;;;;;6153398;23;20220;-79
2022/08/03 12:59:25;;;;;;;1.35;0.80;;;39.40;50.50;;;;;;6171944;23;20184;-80
2022/08/03 13:01:53;;;;;;;1.38;0.80;;;39.20;52.90;;;;;;6147106;23;20267;-80
2022/08/03 13:04:38;;;;;;;1.38;0.80;;;39.10;53.10;;;;;;6162194;23;20208;-81
2022/08/03 13:07:40;;;;;;;1.35;0.80;;;39.20;51.90;;;;;;6147179;23;20212;-79
2022/08/03 13:10:25;;;;;;;1.38;0.80;;;39.20;51.90;;;;;;6174652;23;20370;-80
2022/08/03 13:12:57;;;;;;;1.38;0.80;;;39.30;52.00;;;;;;6149409;23;20205;-80
2022/08/03 13:15:26;;;;;;;1.40;0.80;;;39.40;52.80;;;;;;6173223;23;20196;-81
2022/08/03 13:17:55;;;;;;;1.40;0.80;;;39.40;51.70;;;;;;6149453;23;20213;-80
2022/08/03 13:20:27;;;;;;;1.38;0.80;;;39.40;52.30;;;;;;6166318;23;20181;-80
2022/08/03 13:26:17;;;;;;;1.38;0.80;;;39.40;51.60;;;;;;6098981;23;20187;-80
2022/08/03 13:28:54;;;;;;;1.40;0.80;;;39.50;51.30;;;;;;6171899;23;20204;-81
2022/08/03 13:31:21;;;;;;;1.50;1.20;;;39.50;50.60;;;;;;6149996;23;20208;-80
2022/08/03 13:33:49;;;;;;;1.38;0.80;;;39.40;52.80;;;;;;6164759;23;20183;-80
2022/08/03 13:36:18;;;;;;;1.40;0.80;;;39.50;52.20;;;;;;6148647;23;20220;-80
2022/08/03 13:38:46;;;;;;;1.38;0.80;;;39.50;51.70;;;;;;6164280;23;20187;-79
2022/08/03 13:41:28;;;;;;;1.38;0.80;;;39.70;50.70;;;;;;6158747;23;20212;-80
2022/08/03 13:43:56;;;;;;;1.40;0.80;;;39.80;50.40;;;;;;6163646;23;20536;-80
2022/08/03 13:46:25;;;;;;;1.35;0.80;;;39.80;50.80;;;;;;6148518;23;20271;-81
2022/08/03 13:48:57;;;;;;;1.40;0.80;;;39.90;51.10;;;;;;6164984;23;20184;-81
2022/08/03 13:51:24;;;;;;;1.40;0.80;;;39.90;51.70;;;;;;6156123;23;20239;-82
2022/08/03 13:53:53;;;;;;;1.38;0.80;;;39.80;51.80;;;;;;6175068;23;20177;-81
2022/08/03 13:56:23;;;;;;;1.38;0.80;;;39.80;51.00;;;;;;6157328;23;20243;-79
2022/08/03 13:58:51;;;;;;;1.38;0.80;;;39.70;51.20;;;;;;6175834;23;20228;-81
2022/08/03 14:04:35;;;;;;;1.38;0.80;;;39.60;52.20;;;;;;6086205;23;20267;-81
2022/08/03 14:07:03;;;;;;;1.40;0.80;;;39.70;51.00;;;;;;6156153;23;20268;-80
2022/08/03 14:09:34;;;;;;;1.40;0.80;;;39.80;50.10;;;;;;6168016;23;20195;-80
2022/08/03 14:12:04;;;;;;;1.40;0.80;;;39.90;50.60;;;;;;6154946;23;20215;-80
2022/08/03 14:14:51;;;;;;;1.40;0.80;;;39.90;50.40;;;;;;6167170;23;20177;-80
2022/08/03 14:17:20;;;;;;;1.35;0.80;;;39.90;50.30;;;;;;6154589;23;20240;-80
2022/08/03 14:19:52;;;;;;;1.38;0.80;;;39.90;51.20;;;;;;6179932;23;20386;-78
2022/08/03 14:25:50;;;;;;;1.35;0.80;;;39.30;51.50;;;;;;5986250;23;20284;-80
2022/08/03 14:28:21;;;;;;;1.35;0.80;;;39.40;51.80;;;;;;6148090;23;20189;-80
2022/08/03 14:30:58;;;;;;;1.40;0.80;;;39.40;51.30;;;;;;6158197;23;20181;-80
2022/08/03 14:33:27;;;;;;;1.35;0.80;;;39.30;51.20;;;;;;6174244;23;20177;-80
2022/08/03 14:35:59;;;;;;;1.40;0.90;;;39.40;51.40;;;;;;6151034;23;20640;-79